sensor_id;sensor_type;location;lat;lon;timestamp;P1;durP1;ratioP1;P2;durP2;ratioP2
61709;SDS011;73500;51.494;5.386;2023-11-19T00:00:47;3.60;;;0.73;;
61709;SDS011;73500;51.494;5.386;2023-11-19T00:03:12;1.55;;;0.70;;
61709;SDS011;73500;51.494;5.386;2023-11-19T00:05:38;3.75;;;0.85;;
61709;SDS011;73500;51.494;5.386;2023-11-19T00:08:03;3.20;;;0.90;;
61709;SDS011;73500;51.494;5.386;2023-11-19T00:10:30;1.98;;;0.80;;
61709;SDS011;73500;51.494;5.386;2023-11-19T00:12:56;1.88;;;0.90;;
61709;SDS011;73500;51.494;5.386;2023-11-19T00:15:22;1.65;;;0.75;;
61709;SDS011;73500;51.494;5.386;2023-11-19T00:17:49;3.55;;;0.88;;
61709;SDS011;73500;51.494;5.386;2023-11-19T00:20:15;1.95;;;0.75;;
61709;SDS011;73500;51.494;5.386;2023-11-19T00:22:42;1.73;;;0.70;;
61709;SDS011;73500;51.494;5.386;2023-11-19T00:25:08;2.10;;;0.70;;
61709;SDS011;73500;51.494;5.386;2023-11-19T00:27:34;1.52;;;0.70;;
61709;SDS011;73500;51.494;5.386;2023-11-19T00:29:59;2.65;;;0.88;;
61709;SDS011;73500;51.494;5.386;2023-11-19T00:32:25;1.83;;;0.80;;
61709;SDS011;73500;51.494;5.386;2023-11-19T00:34:50;1.80;;;0.80;;
61709;SDS011;73500;51.494;5.386;2023-11-19T00:37:16;2.38;;;0.75;;
61709;SDS011;73500;51.494;5.386;2023-11-19T00:39:41;2.00;;;0.70;;
61709;SDS011;73500;51.494;5.386;2023-11-19T00:42:07;2.22;;;0.80;;
61709;SDS011;73500;51.494;5.386;2023-11-19T00:44:32;2.95;;;1.00;;
61709;SDS011;73500;51.494;5.386;2023-11-19T00:46:58;1.73;;;0.73;;
61709;SDS011;73500;51.494;5.386;2023-11-19T00:49:24;2.70;;;0.90;;
61709;SDS011;73500;51.494;5.386;2023-11-19T00:51:50;2.28;;;0.88;;
61709;SDS011;73500;51.494;5.386;2023-11-19T00:54:15;3.57;;;0.90;;
61709;SDS011;73500;51.494;5.386;2023-11-19T00:56:40;2.35;;;0.88;;
61709;SDS011;73500;51.494;5.386;2023-11-19T00:59:06;2.47;;;0.80;;
61709;SDS011;73500;51.494;5.386;2023-11-19T01:01:31;3.30;;;0.83;;
61709;SDS011;73500;51.494;5.386;2023-11-19T01:03:56;2.73;;;0.73;;
61709;SDS011;73500;51.494;5.386;2023-11-19T01:06:30;2.25;;;0.80;;
61709;SDS011;73500;51.494;5.386;2023-11-19T01:08:56;2.25;;;0.73;;
61709;SDS011;73500;51.494;5.386;2023-11-19T01:11:22;3.13;;;0.88;;
61709;SDS011;73500;51.494;5.386;2023-11-19T01:13:48;2.15;;;0.70;;
61709;SDS011;73500;51.494;5.386;2023-11-19T01:16:14;2.20;;;0.80;;
61709;SDS011;73500;51.494;5.386;2023-11-19T01:18:40;1.42;;;0.60;;
61709;SDS011;73500;51.494;5.386;2023-11-19T01:21:05;2.33;;;0.93;;
61709;SDS011;73500;51.494;5.386;2023-11-19T01:23:31;3.50;;;1.00;;
61709;SDS011;73500;51.494;5.386;2023-11-19T01:25:57;2.42;;;0.70;;
61709;SDS011;73500;51.494;5.386;2023-11-19T01:28:23;2.30;;;0.80;;
61709;SDS011;73500;51.494;5.386;2023-11-19T01:30:50;2.13;;;0.88;;
61709;SDS011;73500;51.494;5.386;2023-11-19T01:33:16;3.50;;;0.80;;
61709;SDS011;73500;51.494;5.386;2023-11-19T01:35:41;4.45;;;0.90;;
61709;SDS011;73500;51.494;5.386;2023-11-19T01:38:06;3.08;;;0.95;;
61709;SDS011;73500;51.494;5.386;2023-11-19T01:40:33;3.15;;;1.20;;
61709;SDS011;73500;51.494;5.386;2023-11-19T01:42:59;3.30;;;1.00;;
61709;SDS011;73500;51.494;5.386;2023-11-19T01:45:28;3.63;;;0.88;;
61709;SDS011;73500;51.494;5.386;2023-11-19T01:47:55;2.50;;;0.98;;
61709;SDS011;73500;51.494;5.386;2023-11-19T01:50:21;2.63;;;0.90;;
61709;SDS011;73500;51.494;5.386;2023-11-19T01:52:49;4.50;;;0.90;;
61709;SDS011;73500;51.494;5.386;2023-11-19T01:55:17;3.70;;;0.90;;
61709;SDS011;73500;51.494;5.386;2023-11-19T01:57:43;2.15;;;0.88;;
61709;SDS011;73500;51.494;5.386;2023-11-19T02:00:08;4.32;;;1.30;;
61709;SDS011;73500;51.494;5.386;2023-11-19T02:02:38;3.65;;;1.00;;
61709;SDS011;73500;51.494;5.386;2023-11-19T02:05:05;2.75;;;1.00;;
61709;SDS011;73500;51.494;5.386;2023-11-19T02:07:31;3.67;;;0.90;;
61709;SDS011;73500;51.494;5.386;2023-11-19T02:09:57;3.33;;;0.93;;
61709;SDS011;73500;51.494;5.386;2023-11-19T02:12:25;3.15;;;0.98;;
61709;SDS011;73500;51.494;5.386;2023-11-19T02:14:51;4.07;;;1.08;;
61709;SDS011;73500;51.494;5.386;2023-11-19T02:17:26;3.90;;;1.05;;
61709;SDS011;73500;51.494;5.386;2023-11-19T02:19:53;3.08;;;1.05;;
61709;SDS011;73500;51.494;5.386;2023-11-19T02:22:18;4.30;;;1.05;;
61709;SDS011;73500;51.494;5.386;2023-11-19T02:24:44;3.22;;;1.05;;
61709;SDS011;73500;51.494;5.386;2023-11-19T02:27:15;3.60;;;1.13;;
61709;SDS011;73500;51.494;5.386;2023-11-19T02:29:45;6.13;;;1.17;;
61709;SDS011;73500;51.494;5.386;2023-11-19T02:32:12;4.32;;;0.95;;
61709;SDS011;73500;51.494;5.386;2023-11-19T02:34:38;4.25;;;1.30;;
61709;SDS011;73500;51.494;5.386;2023-11-19T02:37:03;5.53;;;1.38;;
61709;SDS011;73500;51.494;5.386;2023-11-19T02:39:30;5.28;;;1.40;;
61709;SDS011;73500;51.494;5.386;2023-11-19T02:41:56;4.97;;;1.40;;
61709;SDS011;73500;51.494;5.386;2023-11-19T02:44:21;4.70;;;1.13;;
61709;SDS011;73500;51.494;5.386;2023-11-19T02:46:46;6.10;;;1.15;;
61709;SDS011;73500;51.494;5.386;2023-11-19T02:49:13;4.22;;;1.40;;
61709;SDS011;73500;51.494;5.386;2023-11-19T02:51:39;4.97;;;1.30;;
61709;SDS011;73500;51.494;5.386;2023-11-19T02:54:04;3.47;;;1.00;;
61709;SDS011;73500;51.494;5.386;2023-11-19T02:56:29;3.72;;;1.00;;
61709;SDS011;73500;51.494;5.386;2023-11-19T02:58:59;3.95;;;1.20;;
61709;SDS011;73500;51.494;5.386;2023-11-19T03:01:28;4.63;;;1.60;;
61709;SDS011;73500;51.494;5.386;2023-11-19T03:03:58;5.00;;;1.20;;
61709;SDS011;73500;51.494;5.386;2023-11-19T03:06:26;5.63;;;1.27;;
61709;SDS011;73500;51.494;5.386;2023-11-19T03:08:52;6.32;;;1.42;;
61709;SDS011;73500;51.494;5.386;2023-11-19T03:11:17;5.35;;;1.55;;
61709;SDS011;73500;51.494;5.386;2023-11-19T03:13:43;6.00;;;1.48;;
61709;SDS011;73500;51.494;5.386;2023-11-19T03:16:08;7.18;;;1.40;;
61709;SDS011;73500;51.494;5.386;2023-11-19T03:18:33;5.18;;;1.40;;
61709;SDS011;73500;51.494;5.386;2023-11-19T03:20:59;4.13;;;1.35;;
61709;SDS011;73500;51.494;5.386;2023-11-19T03:23:24;7.63;;;1.50;;
61709;SDS011;73500;51.494;5.386;2023-11-19T03:25:52;6.93;;;1.50;;
61709;SDS011;73500;51.494;5.386;2023-11-19T03:28:17;4.68;;;1.50;;
61709;SDS011;73500;51.494;5.386;2023-11-19T03:30:43;6.50;;;1.50;;
61709;SDS011;73500;51.494;5.386;2023-11-19T03:33:08;5.97;;;1.50;;
61709;SDS011;73500;51.494;5.386;2023-11-19T03:35:33;7.35;;;1.80;;
61709;SDS011;73500;51.494;5.386;2023-11-19T03:37:59;6.15;;;1.80;;
61709;SDS011;73500;51.494;5.386;2023-11-19T03:40:24;9.20;;;1.60;;
61709;SDS011;73500;51.494;5.386;2023-11-19T03:42:50;8.63;;;1.52;;
61709;SDS011;73500;51.494;5.386;2023-11-19T03:45:15;8.02;;;1.55;;
61709;SDS011;73500;51.494;5.386;2023-11-19T03:47:41;6.65;;;1.90;;
61709;SDS011;73500;51.494;5.386;2023-11-19T03:50:06;7.00;;;1.52;;
61709;SDS011;73500;51.494;5.386;2023-11-19T03:52:33;6.15;;;1.70;;
61709;SDS011;73500;51.494;5.386;2023-11-19T03:54:58;6.35;;;1.80;;
61709;SDS011;73500;51.494;5.386;2023-11-19T03:57:24;6.70;;;1.83;;
61709;SDS011;73500;51.494;5.386;2023-11-19T03:59:49;6.15;;;1.60;;
61709;SDS011;73500;51.494;5.386;2023-11-19T04:02:15;7.82;;;1.60;;
61709;SDS011;73500;51.494;5.386;2023-11-19T04:04:41;7.72;;;1.77;;
61709;SDS011;73500;51.494;5.386;2023-11-19T04:07:06;7.93;;;2.30;;
61709;SDS011;73500;51.494;5.386;2023-11-19T04:09:32;7.28;;;1.83;;
61709;SDS011;73500;51.494;5.386;2023-11-19T04:11:58;7.43;;;1.70;;
61709;SDS011;73500;51.494;5.386;2023-11-19T04:14:24;6.97;;;1.65;;
61709;SDS011;73500;51.494;5.386;2023-11-19T04:16:49;7.97;;;2.00;;
61709;SDS011;73500;51.494;5.386;2023-11-19T04:19:15;7.22;;;1.80;;
61709;SDS011;73500;51.494;5.386;2023-11-19T04:21:41;7.43;;;1.80;;
61709;SDS011;73500;51.494;5.386;2023-11-19T04:24:07;9.25;;;2.10;;
61709;SDS011;73500;51.494;5.386;2023-11-19T04:26:33;6.15;;;1.70;;
61709;SDS011;73500;51.494;5.386;2023-11-19T04:28:59;11.35;;;2.10;;
61709;SDS011;73500;51.494;5.386;2023-11-19T04:31:28;7.13;;;1.70;;
61709;SDS011;73500;51.494;5.386;2023-11-19T04:33:54;7.55;;;2.20;;
61709;SDS011;73500;51.494;5.386;2023-11-19T04:36:20;7.75;;;2.10;;
61709;SDS011;73500;51.494;5.386;2023-11-19T04:38:49;6.78;;;1.83;;
61709;SDS011;73500;51.494;5.386;2023-11-19T04:41:14;7.35;;;2.03;;
61709;SDS011;73500;51.494;5.386;2023-11-19T04:43:39;7.82;;;1.67;;
61709;SDS011;73500;51.494;5.386;2023-11-19T04:46:05;7.00;;;2.33;;
61709;SDS011;73500;51.494;5.386;2023-11-19T04:48:30;6.82;;;1.80;;
61709;SDS011;73500;51.494;5.386;2023-11-19T04:50:55;7.37;;;1.83;;
61709;SDS011;73500;51.494;5.386;2023-11-19T04:53:21;7.32;;;1.77;;
61709;SDS011;73500;51.494;5.386;2023-11-19T04:55:46;9.30;;;2.10;;
61709;SDS011;73500;51.494;5.386;2023-11-19T04:58:12;9.10;;;1.98;;
61709;SDS011;73500;51.494;5.386;2023-11-19T05:00:37;6.82;;;1.70;;
61709;SDS011;73500;51.494;5.386;2023-11-19T05:03:03;7.68;;;2.22;;
61709;SDS011;73500;51.494;5.386;2023-11-19T05:05:28;8.10;;;1.92;;
61709;SDS011;73500;51.494;5.386;2023-11-19T05:07:54;10.52;;;2.38;;
61709;SDS011;73500;51.494;5.386;2023-11-19T05:10:20;6.90;;;1.58;;
61709;SDS011;73500;51.494;5.386;2023-11-19T05:12:45;6.70;;;1.70;;
61709;SDS011;73500;51.494;5.386;2023-11-19T05:15:10;11.23;;;2.40;;
61709;SDS011;73500;51.494;5.386;2023-11-19T05:17:36;8.65;;;2.28;;
61709;SDS011;73500;51.494;5.386;2023-11-19T05:20:02;5.88;;;1.80;;
61709;SDS011;73500;51.494;5.386;2023-11-19T05:22:28;8.52;;;1.90;;
61709;SDS011;73500;51.494;5.386;2023-11-19T05:24:53;6.35;;;1.70;;
61709;SDS011;73500;51.494;5.386;2023-11-19T05:27:19;5.65;;;1.73;;
61709;SDS011;73500;51.494;5.386;2023-11-19T05:29:44;7.97;;;1.77;;
61709;SDS011;73500;51.494;5.386;2023-11-19T05:32:10;6.90;;;1.90;;
61709;SDS011;73500;51.494;5.386;2023-11-19T05:34:35;7.25;;;2.00;;
61709;SDS011;73500;51.494;5.386;2023-11-19T05:37:00;7.72;;;1.73;;
61709;SDS011;73500;51.494;5.386;2023-11-19T05:39:27;7.07;;;2.00;;
61709;SDS011;73500;51.494;5.386;2023-11-19T05:41:53;7.68;;;2.17;;
61709;SDS011;73500;51.494;5.386;2023-11-19T05:44:18;10.55;;;2.00;;
61709;SDS011;73500;51.494;5.386;2023-11-19T05:46:44;6.30;;;1.95;;
61709;SDS011;73500;51.494;5.386;2023-11-19T05:49:10;8.77;;;2.35;;
61709;SDS011;73500;51.494;5.386;2023-11-19T05:51:37;7.43;;;2.15;;
61709;SDS011;73500;51.494;5.386;2023-11-19T05:54:03;10.48;;;2.33;;
61709;SDS011;73500;51.494;5.386;2023-11-19T05:56:31;8.35;;;2.00;;
61709;SDS011;73500;51.494;5.386;2023-11-19T05:58:58;10.10;;;1.98;;
61709;SDS011;73500;51.494;5.386;2023-11-19T06:01:26;9.88;;;2.00;;
61709;SDS011;73500;51.494;5.386;2023-11-19T06:03:51;12.35;;;2.63;;
61709;SDS011;73500;51.494;5.386;2023-11-19T06:06:17;8.50;;;2.05;;
61709;SDS011;73500;51.494;5.386;2023-11-19T06:08:42;12.50;;;2.67;;
61709;SDS011;73500;51.494;5.386;2023-11-19T06:11:09;9.20;;;2.22;;
61709;SDS011;73500;51.494;5.386;2023-11-19T06:13:39;8.85;;;2.08;;
61709;SDS011;73500;51.494;5.386;2023-11-19T06:16:05;8.63;;;2.00;;
61709;SDS011;73500;51.494;5.386;2023-11-19T06:18:30;9.27;;;2.80;;
61709;SDS011;73500;51.494;5.386;2023-11-19T06:20:56;8.85;;;2.67;;
61709;SDS011;73500;51.494;5.386;2023-11-19T06:23:21;9.25;;;1.85;;
61709;SDS011;73500;51.494;5.386;2023-11-19T06:25:47;8.93;;;2.60;;
61709;SDS011;73500;51.494;5.386;2023-11-19T06:28:12;12.00;;;2.88;;
61709;SDS011;73500;51.494;5.386;2023-11-19T06:30:38;8.13;;;1.92;;
61709;SDS011;73500;51.494;5.386;2023-11-19T06:33:04;9.13;;;2.40;;
61709;SDS011;73500;51.494;5.386;2023-11-19T06:35:29;8.02;;;2.15;;
61709;SDS011;73500;51.494;5.386;2023-11-19T06:38:01;8.95;;;1.90;;
61709;SDS011;73500;51.494;5.386;2023-11-19T06:40:26;9.77;;;2.60;;
61709;SDS011;73500;51.494;5.386;2023-11-19T06:42:52;9.80;;;2.42;;
61709;SDS011;73500;51.494;5.386;2023-11-19T06:45:17;10.18;;;2.30;;
61709;SDS011;73500;51.494;5.386;2023-11-19T06:47:42;8.70;;;2.00;;
61709;SDS011;73500;51.494;5.386;2023-11-19T06:50:08;10.98;;;2.95;;
61709;SDS011;73500;51.494;5.386;2023-11-19T06:52:34;11.27;;;2.22;;
61709;SDS011;73500;51.494;5.386;2023-11-19T06:55:00;8.82;;;2.45;;
61709;SDS011;73500;51.494;5.386;2023-11-19T06:57:25;9.15;;;2.33;;
61709;SDS011;73500;51.494;5.386;2023-11-19T06:59:50;7.85;;;2.30;;
61709;SDS011;73500;51.494;5.386;2023-11-19T07:02:16;9.65;;;2.22;;
61709;SDS011;73500;51.494;5.386;2023-11-19T07:04:41;8.57;;;2.17;;
61709;SDS011;73500;51.494;5.386;2023-11-19T07:07:07;7.50;;;1.98;;
61709;SDS011;73500;51.494;5.386;2023-11-19T07:09:32;9.75;;;2.40;;
61709;SDS011;73500;51.494;5.386;2023-11-19T07:11:58;9.43;;;2.17;;
61709;SDS011;73500;51.494;5.386;2023-11-19T07:14:25;10.35;;;2.30;;
61709;SDS011;73500;51.494;5.386;2023-11-19T07:16:50;12.13;;;2.85;;
61709;SDS011;73500;51.494;5.386;2023-11-19T07:19:15;9.67;;;2.37;;
61709;SDS011;73500;51.494;5.386;2023-11-19T07:21:41;11.32;;;2.60;;
61709;SDS011;73500;51.494;5.386;2023-11-19T07:24:09;8.82;;;1.67;;
61709;SDS011;73500;51.494;5.386;2023-11-19T07:26:40;7.85;;;2.20;;
61709;SDS011;73500;51.494;5.386;2023-11-19T07:29:07;9.52;;;2.78;;
61709;SDS011;73500;51.494;5.386;2023-11-19T07:31:32;13.47;;;2.83;;
61709;SDS011;73500;51.494;5.386;2023-11-19T07:33:58;12.63;;;2.65;;
61709;SDS011;73500;51.494;5.386;2023-11-19T07:36:23;10.57;;;2.30;;
61709;SDS011;73500;51.494;5.386;2023-11-19T07:38:48;10.02;;;2.45;;
61709;SDS011;73500;51.494;5.386;2023-11-19T07:41:13;9.50;;;2.33;;
61709;SDS011;73500;51.494;5.386;2023-11-19T07:43:39;8.43;;;2.30;;
61709;SDS011;73500;51.494;5.386;2023-11-19T07:46:10;11.13;;;2.90;;
61709;SDS011;73500;51.494;5.386;2023-11-19T07:48:36;11.02;;;2.22;;
61709;SDS011;73500;51.494;5.386;2023-11-19T07:51:02;11.37;;;2.20;;
61709;SDS011;73500;51.494;5.386;2023-11-19T07:53:27;10.32;;;2.70;;
61709;SDS011;73500;51.494;5.386;2023-11-19T07:55:53;10.60;;;2.53;;
61709;SDS011;73500;51.494;5.386;2023-11-19T07:58:18;11.23;;;2.33;;
61709;SDS011;73500;51.494;5.386;2023-11-19T08:00:43;8.63;;;1.98;;
61709;SDS011;73500;51.494;5.386;2023-11-19T08:03:08;8.83;;;2.27;;
61709;SDS011;73500;51.494;5.386;2023-11-19T08:05:34;8.48;;;2.20;;
61709;SDS011;73500;51.494;5.386;2023-11-19T08:07:59;12.70;;;3.37;;
61709;SDS011;73500;51.494;5.386;2023-11-19T08:10:24;7.93;;;2.08;;
61709;SDS011;73500;51.494;5.386;2023-11-19T08:12:50;10.77;;;2.50;;
61709;SDS011;73500;51.494;5.386;2023-11-19T08:15:15;11.57;;;2.47;;
61709;SDS011;73500;51.494;5.386;2023-11-19T08:17:41;8.98;;;2.28;;
61709;SDS011;73500;51.494;5.386;2023-11-19T08:20:06;9.60;;;2.50;;
61709;SDS011;73500;51.494;5.386;2023-11-19T08:22:35;9.10;;;2.45;;
61709;SDS011;73500;51.494;5.386;2023-11-19T08:25:01;9.00;;;2.60;;
61709;SDS011;73500;51.494;5.386;2023-11-19T08:27:27;10.63;;;2.50;;
61709;SDS011;73500;51.494;5.386;2023-11-19T08:29:53;8.68;;;2.38;;
61709;SDS011;73500;51.494;5.386;2023-11-19T08:32:21;9.75;;;2.60;;
61709;SDS011;73500;51.494;5.386;2023-11-19T08:34:50;11.15;;;2.65;;
61709;SDS011;73500;51.494;5.386;2023-11-19T08:37:16;9.02;;;2.45;;
61709;SDS011;73500;51.494;5.386;2023-11-19T08:39:45;9.13;;;2.83;;
61709;SDS011;73500;51.494;5.386;2023-11-19T08:42:14;9.13;;;2.00;;
61709;SDS011;73500;51.494;5.386;2023-11-19T08:44:39;7.63;;;2.22;;
61709;SDS011;73500;51.494;5.386;2023-11-19T08:47:08;11.70;;;2.50;;
61709;SDS011;73500;51.494;5.386;2023-11-19T08:49:33;10.05;;;2.35;;
61709;SDS011;73500;51.494;5.386;2023-11-19T08:51:59;10.18;;;2.78;;
61709;SDS011;73500;51.494;5.386;2023-11-19T08:54:24;9.82;;;2.45;;
61709;SDS011;73500;51.494;5.386;2023-11-19T08:56:49;9.63;;;2.25;;
61709;SDS011;73500;51.494;5.386;2023-11-19T08:59:15;9.80;;;2.50;;
61709;SDS011;73500;51.494;5.386;2023-11-19T09:01:41;11.07;;;2.83;;
61709;SDS011;73500;51.494;5.386;2023-11-19T09:04:07;7.95;;;2.58;;
61709;SDS011;73500;51.494;5.386;2023-11-19T09:06:32;8.45;;;2.17;;
61709;SDS011;73500;51.494;5.386;2023-11-19T09:08:58;10.80;;;2.58;;
61709;SDS011;73500;51.494;5.386;2023-11-19T09:11:27;8.63;;;2.50;;
61709;SDS011;73500;51.494;5.386;2023-11-19T09:13:52;10.95;;;2.50;;
61709;SDS011;73500;51.494;5.386;2023-11-19T09:16:18;11.43;;;2.35;;
61709;SDS011;73500;51.494;5.386;2023-11-19T09:18:43;12.90;;;2.80;;
61709;SDS011;73500;51.494;5.386;2023-11-19T09:21:12;11.63;;;2.38;;
61709;SDS011;73500;51.494;5.386;2023-11-19T09:23:37;9.52;;;2.50;;
61709;SDS011;73500;51.494;5.386;2023-11-19T09:26:04;12.10;;;2.30;;
61709;SDS011;73500;51.494;5.386;2023-11-19T09:28:30;13.15;;;2.92;;
61709;SDS011;73500;51.494;5.386;2023-11-19T09:30:56;11.23;;;2.67;;
61709;SDS011;73500;51.494;5.386;2023-11-19T09:33:21;10.85;;;2.90;;
61709;SDS011;73500;51.494;5.386;2023-11-19T09:35:46;10.95;;;2.50;;
61709;SDS011;73500;51.494;5.386;2023-11-19T09:38:14;11.05;;;3.00;;
61709;SDS011;73500;51.494;5.386;2023-11-19T09:40:39;12.60;;;2.83;;
61709;SDS011;73500;51.494;5.386;2023-11-19T09:43:05;10.32;;;2.22;;
61709;SDS011;73500;51.494;5.386;2023-11-19T09:45:31;10.68;;;2.75;;
61709;SDS011;73500;51.494;5.386;2023-11-19T09:48:02;9.77;;;2.40;;
61709;SDS011;73500;51.494;5.386;2023-11-19T09:50:29;12.00;;;2.78;;
61709;SDS011;73500;51.494;5.386;2023-11-19T09:52:56;9.60;;;2.30;;
61709;SDS011;73500;51.494;5.386;2023-11-19T09:55:21;11.60;;;3.20;;
61709;SDS011;73500;51.494;5.386;2023-11-19T09:57:46;9.27;;;2.25;;
61709;SDS011;73500;51.494;5.386;2023-11-19T10:00:13;10.38;;;2.88;;
61709;SDS011;73500;51.494;5.386;2023-11-19T10:02:40;14.30;;;2.85;;
61709;SDS011;73500;51.494;5.386;2023-11-19T10:05:06;9.95;;;2.65;;
61709;SDS011;73500;51.494;5.386;2023-11-19T10:07:33;11.98;;;2.60;;
61709;SDS011;73500;51.494;5.386;2023-11-19T10:09:59;11.93;;;2.50;;
61709;SDS011;73500;51.494;5.386;2023-11-19T10:12:26;12.25;;;2.60;;
61709;SDS011;73500;51.494;5.386;2023-11-19T10:14:52;10.80;;;2.53;;
61709;SDS011;73500;51.494;5.386;2023-11-19T10:17:21;10.57;;;2.58;;
61709;SDS011;73500;51.494;5.386;2023-11-19T10:19:46;11.93;;;2.70;;
61709;SDS011;73500;51.494;5.386;2023-11-19T10:22:11;8.10;;;2.17;;
61709;SDS011;73500;51.494;5.386;2023-11-19T10:24:36;7.97;;;2.40;;
61709;SDS011;73500;51.494;5.386;2023-11-19T10:27:07;9.40;;;2.13;;
61709;SDS011;73500;51.494;5.386;2023-11-19T10:29:35;12.60;;;2.85;;
61709;SDS011;73500;51.494;5.386;2023-11-19T10:32:03;12.02;;;2.50;;
61709;SDS011;73500;51.494;5.386;2023-11-19T10:34:29;15.85;;;3.38;;
61709;SDS011;73500;51.494;5.386;2023-11-19T10:36:55;9.77;;;2.42;;
61709;SDS011;73500;51.494;5.386;2023-11-19T10:39:20;11.43;;;2.30;;
61709;SDS011;73500;51.494;5.386;2023-11-19T10:41:46;10.20;;;2.20;;
61709;SDS011;73500;51.494;5.386;2023-11-19T10:44:12;12.85;;;2.63;;
61709;SDS011;73500;51.494;5.386;2023-11-19T10:46:41;10.00;;;2.50;;
61709;SDS011;73500;51.494;5.386;2023-11-19T10:49:07;9.77;;;2.30;;
61709;SDS011;73500;51.494;5.386;2023-11-19T10:51:33;11.38;;;2.55;;
61709;SDS011;73500;51.494;5.386;2023-11-19T10:54:01;13.57;;;2.72;;
61709;SDS011;73500;51.494;5.386;2023-11-19T10:56:31;10.95;;;3.00;;
61709;SDS011;73500;51.494;5.386;2023-11-19T10:58:58;9.40;;;2.33;;
61709;SDS011;73500;51.494;5.386;2023-11-19T11:01:26;16.10;;;2.90;;
61709;SDS011;73500;51.494;5.386;2023-11-19T11:03:59;12.43;;;2.88;;
61709;SDS011;73500;51.494;5.386;2023-11-19T11:06:26;8.80;;;2.53;;
61709;SDS011;73500;51.494;5.386;2023-11-19T11:08:51;8.48;;;2.45;;
61709;SDS011;73500;51.494;5.386;2023-11-19T11:11:18;12.13;;;2.85;;
61709;SDS011;73500;51.494;5.386;2023-11-19T11:13:46;9.85;;;2.50;;
61709;SDS011;73500;51.494;5.386;2023-11-19T11:16:12;10.25;;;2.50;;
61709;SDS011;73500;51.494;5.386;2023-11-19T11:18:39;13.35;;;2.97;;
61709;SDS011;73500;51.494;5.386;2023-11-19T11:21:11;10.65;;;2.70;;
61709;SDS011;73500;51.494;5.386;2023-11-19T11:32:21;12.68;;;2.78;;
61709;SDS011;73500;51.494;5.386;2023-11-19T11:35:12;11.07;;;2.95;;
61709;SDS011;73500;51.494;5.386;2023-11-19T11:37:50;12.75;;;5.22;;
61709;SDS011;73500;51.494;5.386;2023-11-19T11:40:23;14.43;;;8.35;;
61709;SDS011;73500;51.494;5.386;2023-11-19T11:42:48;17.02;;;10.07;;
61709;SDS011;73500;51.494;5.386;2023-11-19T11:45:16;21.70;;;11.70;;
61709;SDS011;73500;51.494;5.386;2023-11-19T11:50:07;20.63;;;12.90;;
61709;SDS011;73500;51.494;5.386;2023-11-19T11:52:33;19.10;;;13.43;;
61709;SDS011;73500;51.494;5.386;2023-11-19T11:55:04;19.58;;;13.05;;
61709;SDS011;73500;51.494;5.386;2023-11-19T11:57:36;23.52;;;12.70;;
61709;SDS011;73500;51.494;5.386;2023-11-19T12:00:02;20.63;;;13.40;;
61709;SDS011;73500;51.494;5.386;2023-11-19T12:02:30;21.85;;;11.25;;
61709;SDS011;73500;51.494;5.386;2023-11-19T12:04:55;22.02;;;10.60;;
61709;SDS011;73500;51.494;5.386;2023-11-19T12:07:22;17.77;;;11.40;;
61709;SDS011;73500;51.494;5.386;2023-11-19T12:09:52;16.48;;;10.48;;
61709;SDS011;73500;51.494;5.386;2023-11-19T12:12:32;16.27;;;10.30;;
61709;SDS011;73500;51.494;5.386;2023-11-19T12:19:59;16.80;;;8.75;;
61709;SDS011;73500;51.494;5.386;2023-11-19T12:22:30;16.88;;;8.45;;
61709;SDS011;73500;51.494;5.386;2023-11-19T12:24:56;16.50;;;8.30;;
61709;SDS011;73500;51.494;5.386;2023-11-19T12:27:21;16.25;;;8.00;;
61709;SDS011;73500;51.494;5.386;2023-11-19T12:29:47;13.75;;;7.40;;
61709;SDS011;73500;51.494;5.386;2023-11-19T12:32:13;13.75;;;7.68;;
61709;SDS011;73500;51.494;5.386;2023-11-19T12:34:38;14.45;;;6.97;;
61709;SDS011;73500;51.494;5.386;2023-11-19T12:37:04;14.75;;;6.68;;
61709;SDS011;73500;51.494;5.386;2023-11-19T12:39:30;12.85;;;6.97;;
61709;SDS011;73500;51.494;5.386;2023-11-19T12:41:55;10.77;;;6.30;;
61709;SDS011;73500;51.494;5.386;2023-11-19T12:44:24;13.60;;;6.05;;
61709;SDS011;73500;51.494;5.386;2023-11-19T12:47:02;11.93;;;6.13;;
61709;SDS011;73500;51.494;5.386;2023-11-19T12:49:29;14.20;;;6.25;;
61709;SDS011;73500;51.494;5.386;2023-11-19T12:51:54;11.88;;;6.15;;
61709;SDS011;73500;51.494;5.386;2023-11-19T12:54:20;14.23;;;5.53;;
61709;SDS011;73500;51.494;5.386;2023-11-19T12:56:52;14.70;;;5.75;;
61709;SDS011;73500;51.494;5.386;2023-11-19T12:59:18;13.50;;;5.68;;
61709;SDS011;73500;51.494;5.386;2023-11-19T13:01:56;12.55;;;5.18;;
61709;SDS011;73500;51.494;5.386;2023-11-19T13:04:21;14.13;;;4.63;;
61709;SDS011;73500;51.494;5.386;2023-11-19T13:06:47;10.80;;;4.32;;
61709;SDS011;73500;51.494;5.386;2023-11-19T13:09:28;14.15;;;4.97;;
61709;SDS011;73500;51.494;5.386;2023-11-19T13:11:54;10.32;;;4.63;;
61709;SDS011;73500;51.494;5.386;2023-11-19T13:14:20;13.30;;;5.10;;
61709;SDS011;73500;51.494;5.386;2023-11-19T13:16:46;13.25;;;4.65;;
61709;SDS011;73500;51.494;5.386;2023-11-19T13:19:12;11.07;;;4.60;;
61709;SDS011;73500;51.494;5.386;2023-11-19T13:21:38;9.80;;;4.07;;
61709;SDS011;73500;51.494;5.386;2023-11-19T13:24:05;13.00;;;4.68;;
61709;SDS011;73500;51.494;5.386;2023-11-19T13:26:31;9.40;;;3.65;;
61709;SDS011;73500;51.494;5.386;2023-11-19T13:28:56;9.98;;;3.83;;
61709;SDS011;73500;51.494;5.386;2023-11-19T13:31:22;11.00;;;4.38;;
61709;SDS011;73500;51.494;5.386;2023-11-19T13:33:47;11.95;;;3.97;;
61709;SDS011;73500;51.494;5.386;2023-11-19T13:36:12;10.88;;;3.33;;
61709;SDS011;73500;51.494;5.386;2023-11-19T13:38:38;11.88;;;3.75;;
61709;SDS011;73500;51.494;5.386;2023-11-19T13:41:05;8.98;;;3.50;;
61709;SDS011;73500;51.494;5.386;2023-11-19T13:43:31;10.48;;;3.40;;
61709;SDS011;73500;51.494;5.386;2023-11-19T13:45:57;10.10;;;3.50;;
61709;SDS011;73500;51.494;5.386;2023-11-19T13:48:23;9.48;;;3.05;;
61709;SDS011;73500;51.494;5.386;2023-11-19T13:50:49;8.57;;;3.08;;
61709;SDS011;73500;51.494;5.386;2023-11-19T13:53:14;10.02;;;3.13;;
61709;SDS011;73500;51.494;5.386;2023-11-19T13:55:40;10.52;;;3.40;;
61709;SDS011;73500;51.494;5.386;2023-11-19T13:58:07;9.32;;;2.97;;
61709;SDS011;73500;51.494;5.386;2023-11-19T14:00:32;9.57;;;2.95;;
61709;SDS011;73500;51.494;5.386;2023-11-19T14:02:58;10.43;;;2.75;;
61709;SDS011;73500;51.494;5.386;2023-11-19T14:05:23;10.23;;;3.00;;
61709;SDS011;73500;51.494;5.386;2023-11-19T14:07:48;8.80;;;3.10;;
61709;SDS011;73500;51.494;5.386;2023-11-19T14:10:15;9.88;;;3.05;;
61709;SDS011;73500;51.494;5.386;2023-11-19T14:12:41;13.25;;;3.10;;
61709;SDS011;73500;51.494;5.386;2023-11-19T14:15:07;10.20;;;2.88;;
61709;SDS011;73500;51.494;5.386;2023-11-19T14:17:39;8.98;;;2.83;;
61709;SDS011;73500;51.494;5.386;2023-11-19T14:20:05;7.63;;;2.55;;
61709;SDS011;73500;51.494;5.386;2023-11-19T14:22:42;9.02;;;2.53;;
61709;SDS011;73500;51.494;5.386;2023-11-19T14:25:09;9.13;;;2.72;;
61709;SDS011;73500;51.494;5.386;2023-11-19T14:27:38;10.57;;;2.83;;
61709;SDS011;73500;51.494;5.386;2023-11-19T14:30:05;6.85;;;2.40;;
61709;SDS011;73500;51.494;5.386;2023-11-19T14:32:32;10.75;;;2.75;;
61709;SDS011;73500;51.494;5.386;2023-11-19T14:34:58;9.18;;;2.50;;
61709;SDS011;73500;51.494;5.386;2023-11-19T14:37:24;8.50;;;2.35;;
61709;SDS011;73500;51.494;5.386;2023-11-19T14:39:49;9.63;;;2.50;;
61709;SDS011;73500;51.494;5.386;2023-11-19T14:42:16;10.55;;;3.45;;
61709;SDS011;73500;51.494;5.386;2023-11-19T14:44:41;9.93;;;2.60;;
61709;SDS011;73500;51.494;5.386;2023-11-19T14:47:07;9.07;;;2.42;;
61709;SDS011;73500;51.494;5.386;2023-11-19T14:49:34;11.25;;;2.63;;
61709;SDS011;73500;51.494;5.386;2023-11-19T14:52:00;6.40;;;1.88;;
61709;SDS011;73500;51.494;5.386;2023-11-19T14:54:25;8.88;;;2.38;;